sensor_id;sensor_type;location;lat;lon;timestamp;P1;durP1;ratioP1;P2;durP2;ratioP2
52542;SDS011;38449;52.696;6.186;2022-09-12T00:01:56;20.90;;;18.80;;
52542;SDS011;38449;52.696;6.186;2022-09-12T00:04:21;20.08;;;17.98;;
52542;SDS011;38449;52.696;6.186;2022-09-12T00:06:47;20.10;;;18.10;;
52542;SDS011;38449;52.696;6.186;2022-09-12T00:09:13;21.52;;;18.42;;
52542;SDS011;38449;52.696;6.186;2022-09-12T00:11:40;22.45;;;20.05;;
52542;SDS011;38449;52.696;6.186;2022-09-12T00:14:07;21.23;;;18.98;;
52542;SDS011;38449;52.696;6.186;2022-09-12T00:16:36;20.45;;;18.45;;
52542;SDS011;38449;52.696;6.186;2022-09-12T00:19:03;21.02;;;18.92;;
52542;SDS011;38449;52.696;6.186;2022-09-12T00:21:31;20.67;;;18.58;;
52542;SDS011;38449;52.696;6.186;2022-09-12T00:23:58;22.70;;;20.38;;
52542;SDS011;38449;52.696;6.186;2022-09-12T00:26:23;23.13;;;20.00;;
52542;SDS011;38449;52.696;6.186;2022-09-12T00:28:49;23.17;;;20.77;;
52542;SDS011;38449;52.696;6.186;2022-09-12T00:31:17;23.10;;;20.83;;
52542;SDS011;38449;52.696;6.186;2022-09-12T00:33:44;23.42;;;21.02;;
52542;SDS011;38449;52.696;6.186;2022-09-12T00:36:12;22.23;;;20.02;;
52542;SDS011;38449;52.696;6.186;2022-09-12T00:38:40;23.17;;;20.77;;
52542;SDS011;38449;52.696;6.186;2022-09-12T00:41:07;21.52;;;19.35;;
52542;SDS011;38449;52.696;6.186;2022-09-12T00:43:40;22.40;;;19.85;;
52542;SDS011;38449;52.696;6.186;2022-09-12T00:46:15;21.02;;;18.88;;
52542;SDS011;38449;52.696;6.186;2022-09-12T00:51:45;26.80;;;21.65;;
52542;SDS011;38449;52.696;6.186;2022-09-12T00:54:21;24.02;;;21.55;;
52542;SDS011;38449;52.696;6.186;2022-09-12T00:56:52;22.77;;;20.52;;
52542;SDS011;38449;52.696;6.186;2022-09-12T00:59:23;23.63;;;21.27;;
52542;SDS011;38449;52.696;6.186;2022-09-12T01:01:53;24.92;;;22.23;;
52542;SDS011;38449;52.696;6.186;2022-09-12T01:04:20;23.60;;;21.13;;
52542;SDS011;38449;52.696;6.186;2022-09-12T01:06:47;23.55;;;21.05;;
52542;SDS011;38449;52.696;6.186;2022-09-12T01:09:16;24.70;;;22.05;;
52542;SDS011;38449;52.696;6.186;2022-09-12T01:11:44;22.35;;;20.15;;
52542;SDS011;38449;52.696;6.186;2022-09-12T01:14:13;22.92;;;20.52;;
52542;SDS011;38449;52.696;6.186;2022-09-12T01:16:40;22.50;;;20.13;;
52542;SDS011;38449;52.696;6.186;2022-09-12T01:32:54;22.55;;;20.25;;
52542;SDS011;38449;52.696;6.186;2022-09-12T01:40:58;23.42;;;21.02;;
52542;SDS011;38449;52.696;6.186;2022-09-12T01:43:56;22.23;;;19.95;;
52542;SDS011;38449;52.696;6.186;2022-09-12T01:46:49;22.75;;;20.40;;
52542;SDS011;38449;52.696;6.186;2022-09-12T01:49:20;22.00;;;19.80;;
52542;SDS011;38449;52.696;6.186;2022-09-12T01:51:54;22.60;;;20.25;;
52542;SDS011;38449;52.696;6.186;2022-09-12T01:54:24;25.50;;;20.70;;
52542;SDS011;38449;52.696;6.186;2022-09-12T01:57:13;24.70;;;21.48;;
52542;SDS011;38449;52.696;6.186;2022-09-12T01:59:50;23.63;;;21.20;;
52542;SDS011;38449;52.696;6.186;2022-09-12T02:02:24;22.13;;;19.92;;
52542;SDS011;38449;52.696;6.186;2022-09-12T02:04:57;23.33;;;20.50;;
52542;SDS011;38449;52.696;6.186;2022-09-12T02:07:30;23.05;;;20.60;;
52542;SDS011;38449;52.696;6.186;2022-09-12T02:10:17;23.30;;;20.85;;
52542;SDS011;38449;52.696;6.186;2022-09-12T02:12:48;23.77;;;21.27;;
52542;SDS011;38449;52.696;6.186;2022-09-12T02:15:15;22.98;;;20.58;;
52542;SDS011;38449;52.696;6.186;2022-09-12T02:17:43;22.98;;;20.58;;
52542;SDS011;38449;52.696;6.186;2022-09-12T02:20:15;22.83;;;20.35;;
52542;SDS011;38449;52.696;6.186;2022-09-12T02:22:44;23.33;;;20.92;;
52542;SDS011;38449;52.696;6.186;2022-09-12T02:25:12;26.00;;;21.90;;
52542;SDS011;38449;52.696;6.186;2022-09-12T02:27:43;24.17;;;21.58;;
52542;SDS011;38449;52.696;6.186;2022-09-12T02:30:13;26.73;;;23.73;;
52542;SDS011;38449;52.696;6.186;2022-09-12T02:35:30;25.85;;;23.08;;
52542;SDS011;38449;52.696;6.186;2022-09-12T02:38:03;24.98;;;22.38;;
52542;SDS011;38449;52.696;6.186;2022-09-12T02:40:45;26.13;;;23.33;;
52542;SDS011;38449;52.696;6.186;2022-09-12T02:43:11;26.85;;;23.52;;
52542;SDS011;38449;52.696;6.186;2022-09-12T02:45:36;28.13;;;24.38;;
52542;SDS011;38449;52.696;6.186;2022-09-12T02:48:09;29.42;;;26.23;;
52542;SDS011;38449;52.696;6.186;2022-09-12T02:50:42;28.33;;;24.40;;
52542;SDS011;38449;52.696;6.186;2022-09-12T02:53:08;31.38;;;26.45;;
52542;SDS011;38449;52.696;6.186;2022-09-12T02:55:35;27.92;;;24.92;;
52542;SDS011;38449;52.696;6.186;2022-09-12T02:58:04;28.05;;;25.05;;
52542;SDS011;38449;52.696;6.186;2022-09-12T03:00:34;28.10;;;25.10;;
52542;SDS011;38449;52.696;6.186;2022-09-12T03:06:07;29.25;;;24.95;;
52542;SDS011;38449;52.696;6.186;2022-09-12T03:22:52;27.13;;;24.23;;
52542;SDS011;38449;52.696;6.186;2022-09-12T03:25:46;28.35;;;25.20;;
52542;SDS011;38449;52.696;6.186;2022-09-12T03:28:17;29.65;;;26.45;;
52542;SDS011;38449;52.696;6.186;2022-09-12T03:30:47;29.38;;;26.27;;
52542;SDS011;38449;52.696;6.186;2022-09-12T03:33:22;28.00;;;24.98;;
52542;SDS011;38449;52.696;6.186;2022-09-12T03:35:49;27.85;;;25.02;;
52542;SDS011;38449;52.696;6.186;2022-09-12T03:38:16;30.67;;;25.60;;
52542;SDS011;38449;52.696;6.186;2022-09-12T03:40:42;29.38;;;26.17;;
52542;SDS011;38449;52.696;6.186;2022-09-12T03:43:08;30.05;;;26.85;;
52542;SDS011;38449;52.696;6.186;2022-09-12T03:45:35;30.20;;;26.90;;
52542;SDS011;38449;52.696;6.186;2022-09-12T03:48:01;30.23;;;26.80;;
52542;SDS011;38449;52.696;6.186;2022-09-12T03:50:27;31.02;;;27.65;;
52542;SDS011;38449;52.696;6.186;2022-09-12T03:52:53;32.50;;;27.90;;
52542;SDS011;38449;52.696;6.186;2022-09-12T03:55:19;29.05;;;25.65;;
52542;SDS011;38449;52.696;6.186;2022-09-12T03:57:44;30.00;;;26.88;;
52542;SDS011;38449;52.696;6.186;2022-09-12T04:00:10;32.40;;;28.30;;
52542;SDS011;38449;52.696;6.186;2022-09-12T04:02:36;28.80;;;25.75;;
52542;SDS011;38449;52.696;6.186;2022-09-12T04:05:02;29.60;;;26.42;;
52542;SDS011;38449;52.696;6.186;2022-09-12T04:07:28;30.08;;;26.88;;
52542;SDS011;38449;52.696;6.186;2022-09-12T04:09:54;29.40;;;26.23;;
52542;SDS011;38449;52.696;6.186;2022-09-12T04:12:20;29.42;;;26.23;;
52542;SDS011;38449;52.696;6.186;2022-09-12T04:14:46;30.10;;;26.92;;
52542;SDS011;38449;52.696;6.186;2022-09-12T04:17:12;29.38;;;26.35;;
52542;SDS011;38449;52.696;6.186;2022-09-12T04:19:38;30.48;;;27.27;;
52542;SDS011;38449;52.696;6.186;2022-09-12T04:22:04;31.92;;;27.35;;
52542;SDS011;38449;52.696;6.186;2022-09-12T04:24:30;29.98;;;26.85;;
52542;SDS011;38449;52.696;6.186;2022-09-12T04:26:56;30.08;;;26.80;;
52542;SDS011;38449;52.696;6.186;2022-09-12T04:29:21;30.55;;;26.35;;
52542;SDS011;38449;52.696;6.186;2022-09-12T04:31:47;29.60;;;26.40;;
52542;SDS011;38449;52.696;6.186;2022-09-12T04:34:13;31.05;;;27.73;;
52542;SDS011;38449;52.696;6.186;2022-09-12T04:36:39;29.83;;;26.58;;
52542;SDS011;38449;52.696;6.186;2022-09-12T04:39:05;33.78;;;27.52;;
52542;SDS011;38449;52.696;6.186;2022-09-12T04:41:36;30.15;;;27.02;;
52542;SDS011;38449;52.696;6.186;2022-09-12T04:44:04;31.58;;;28.15;;
52542;SDS011;38449;52.696;6.186;2022-09-12T04:46:34;30.63;;;27.30;;
52542;SDS011;38449;52.696;6.186;2022-09-12T04:49:01;32.92;;;27.55;;
52542;SDS011;38449;52.696;6.186;2022-09-12T04:51:31;31.92;;;28.63;;
52542;SDS011;38449;52.696;6.186;2022-09-12T04:53:59;32.20;;;26.85;;
52542;SDS011;38449;52.696;6.186;2022-09-12T04:56:28;31.27;;;27.55;;
52542;SDS011;38449;52.696;6.186;2022-09-12T04:58:55;32.17;;;27.63;;
52542;SDS011;38449;52.696;6.186;2022-09-12T05:01:22;31.80;;;27.27;;
52542;SDS011;38449;52.696;6.186;2022-09-12T05:03:48;33.22;;;28.02;;
52542;SDS011;38449;52.696;6.186;2022-09-12T05:06:16;36.15;;;29.50;;
52542;SDS011;38449;52.696;6.186;2022-09-12T05:08:48;32.50;;;28.90;;
52542;SDS011;38449;52.696;6.186;2022-09-12T05:11:21;37.42;;;28.08;;
52542;SDS011;38449;52.696;6.186;2022-09-12T05:13:48;35.97;;;28.67;;
52542;SDS011;38449;52.696;6.186;2022-09-12T05:16:15;31.55;;;28.10;;
52542;SDS011;38449;52.696;6.186;2022-09-12T05:18:42;34.50;;;28.88;;
52542;SDS011;38449;52.696;6.186;2022-09-12T05:21:10;34.72;;;27.77;;
52542;SDS011;38449;52.696;6.186;2022-09-12T05:23:38;35.35;;;29.63;;
52542;SDS011;38449;52.696;6.186;2022-09-12T05:26:04;36.78;;;29.70;;
52542;SDS011;38449;52.696;6.186;2022-09-12T05:28:31;32.38;;;28.15;;
52542;SDS011;38449;52.696;6.186;2022-09-12T05:30:59;33.45;;;27.73;;
52542;SDS011;38449;52.696;6.186;2022-09-12T05:33:35;32.85;;;27.40;;
52542;SDS011;38449;52.696;6.186;2022-09-12T05:36:03;34.53;;;28.90;;
52542;SDS011;38449;52.696;6.186;2022-09-12T05:38:32;33.60;;;27.42;;
52542;SDS011;38449;52.696;6.186;2022-09-12T05:43:28;32.03;;;27.48;;
52542;SDS011;38449;52.696;6.186;2022-09-12T05:46:04;34.67;;;27.90;;
52542;SDS011;38449;52.696;6.186;2022-09-12T05:48:35;32.33;;;26.65;;
52542;SDS011;38449;52.696;6.186;2022-09-12T05:51:02;35.85;;;29.13;;
52542;SDS011;38449;52.696;6.186;2022-09-12T05:53:31;34.88;;;29.00;;
52542;SDS011;38449;52.696;6.186;2022-09-12T05:56:01;37.05;;;29.70;;
52542;SDS011;38449;52.696;6.186;2022-09-12T05:58:37;36.75;;;29.55;;
52542;SDS011;38449;52.696;6.186;2022-09-12T06:01:05;37.72;;;29.95;;
52542;SDS011;38449;52.696;6.186;2022-09-12T06:03:33;34.67;;;29.73;;
52542;SDS011;38449;52.696;6.186;2022-09-12T06:06:02;34.95;;;29.10;;
52542;SDS011;38449;52.696;6.186;2022-09-12T06:08:30;37.97;;;30.65;;
52542;SDS011;38449;52.696;6.186;2022-09-12T06:11:00;39.33;;;29.92;;
52542;SDS011;38449;52.696;6.186;2022-09-12T06:13:27;36.70;;;29.75;;
52542;SDS011;38449;52.696;6.186;2022-09-12T06:15:52;34.38;;;29.50;;
52542;SDS011;38449;52.696;6.186;2022-09-12T06:18:18;35.38;;;29.90;;
52542;SDS011;38449;52.696;6.186;2022-09-12T06:20:45;35.65;;;28.70;;
52542;SDS011;38449;52.696;6.186;2022-09-12T06:23:10;38.33;;;30.75;;
52542;SDS011;38449;52.696;6.186;2022-09-12T06:25:36;37.15;;;30.20;;
52542;SDS011;38449;52.696;6.186;2022-09-12T06:28:02;38.17;;;31.35;;
52542;SDS011;38449;52.696;6.186;2022-09-12T06:30:28;38.72;;;30.70;;
52542;SDS011;38449;52.696;6.186;2022-09-12T06:32:54;42.28;;;29.90;;
52542;SDS011;38449;52.696;6.186;2022-09-12T06:35:21;34.42;;;28.50;;
52542;SDS011;38449;52.696;6.186;2022-09-12T06:37:47;39.13;;;30.38;;
52542;SDS011;38449;52.696;6.186;2022-09-12T06:40:13;40.67;;;30.48;;
52542;SDS011;38449;52.696;6.186;2022-09-12T06:42:39;37.63;;;30.88;;
52542;SDS011;38449;52.696;6.186;2022-09-12T06:45:04;43.30;;;32.55;;
52542;SDS011;38449;52.696;6.186;2022-09-12T06:47:30;41.95;;;34.30;;
52542;SDS011;38449;52.696;6.186;2022-09-12T06:49:57;43.15;;;31.58;;
52542;SDS011;38449;52.696;6.186;2022-09-12T06:52:23;46.78;;;32.17;;
52542;SDS011;38449;52.696;6.186;2022-09-12T06:54:48;43.78;;;33.10;;
52542;SDS011;38449;52.696;6.186;2022-09-12T06:57:14;45.25;;;32.35;;
52542;SDS011;38449;52.696;6.186;2022-09-12T06:59:39;44.55;;;33.40;;
52542;SDS011;38449;52.696;6.186;2022-09-12T07:02:05;46.78;;;33.05;;
52542;SDS011;38449;52.696;6.186;2022-09-12T07:04:33;46.50;;;33.92;;
52542;SDS011;38449;52.696;6.186;2022-09-12T07:07:00;45.42;;;34.60;;
52542;SDS011;38449;52.696;6.186;2022-09-12T07:09:26;46.78;;;34.58;;
52542;SDS011;38449;52.696;6.186;2022-09-12T07:11:53;49.90;;;35.28;;
52542;SDS011;38449;52.696;6.186;2022-09-12T07:14:19;47.30;;;33.90;;
52542;SDS011;38449;52.696;6.186;2022-09-12T07:16:44;51.15;;;36.88;;
52542;SDS011;38449;52.696;6.186;2022-09-12T07:19:10;46.75;;;34.53;;
52542;SDS011;38449;52.696;6.186;2022-09-12T07:21:36;47.78;;;34.03;;
52542;SDS011;38449;52.696;6.186;2022-09-12T07:24:04;48.88;;;34.75;;
52542;SDS011;38449;52.696;6.186;2022-09-12T07:26:30;53.20;;;35.30;;
52542;SDS011;38449;52.696;6.186;2022-09-12T07:28:57;48.33;;;34.42;;
52542;SDS011;38449;52.696;6.186;2022-09-12T07:31:24;47.92;;;35.47;;
52542;SDS011;38449;52.696;6.186;2022-09-12T07:33:51;47.33;;;36.03;;
52542;SDS011;38449;52.696;6.186;2022-09-12T07:36:18;48.40;;;35.20;;
52542;SDS011;38449;52.696;6.186;2022-09-12T07:38:45;46.35;;;34.65;;
52542;SDS011;38449;52.696;6.186;2022-09-12T07:41:15;48.65;;;35.92;;
52542;SDS011;38449;52.696;6.186;2022-09-12T07:43:43;47.83;;;35.80;;
52542;SDS011;38449;52.696;6.186;2022-09-12T07:46:09;48.47;;;35.72;;
52542;SDS011;38449;52.696;6.186;2022-09-12T07:48:35;46.08;;;34.42;;
52542;SDS011;38449;52.696;6.186;2022-09-12T07:51:06;46.92;;;34.60;;
52542;SDS011;38449;52.696;6.186;2022-09-12T07:53:35;52.95;;;36.13;;
52542;SDS011;38449;52.696;6.186;2022-09-12T07:56:02;47.65;;;36.17;;
52542;SDS011;38449;52.696;6.186;2022-09-12T07:58:30;48.42;;;36.58;;
52542;SDS011;38449;52.696;6.186;2022-09-12T08:01:01;47.22;;;36.22;;
52542;SDS011;38449;52.696;6.186;2022-09-12T08:03:26;47.70;;;34.92;;
52542;SDS011;38449;52.696;6.186;2022-09-12T08:05:52;45.33;;;35.08;;
52542;SDS011;38449;52.696;6.186;2022-09-12T08:08:17;46.47;;;35.17;;
52542;SDS011;38449;52.696;6.186;2022-09-12T08:10:43;45.33;;;34.30;;
52542;SDS011;38449;52.696;6.186;2022-09-12T08:13:09;46.67;;;34.60;;
52542;SDS011;38449;52.696;6.186;2022-09-12T08:15:34;42.22;;;32.78;;
52542;SDS011;38449;52.696;6.186;2022-09-12T08:18:00;43.65;;;34.05;;
52542;SDS011;38449;52.696;6.186;2022-09-12T08:20:26;45.70;;;34.58;;
52542;SDS011;38449;52.696;6.186;2022-09-12T08:22:52;42.38;;;32.35;;
52542;SDS011;38449;52.696;6.186;2022-09-12T08:25:18;45.25;;;33.65;;
52542;SDS011;38449;52.696;6.186;2022-09-12T08:27:43;46.10;;;34.28;;
52542;SDS011;38449;52.696;6.186;2022-09-12T08:30:11;44.60;;;32.95;;
52542;SDS011;38449;52.696;6.186;2022-09-12T08:32:37;44.90;;;33.53;;
52542;SDS011;38449;52.696;6.186;2022-09-12T08:35:03;43.83;;;33.53;;
52542;SDS011;38449;52.696;6.186;2022-09-12T08:37:29;43.67;;;32.83;;
52542;SDS011;38449;52.696;6.186;2022-09-12T08:39:55;40.65;;;32.30;;
52542;SDS011;38449;52.696;6.186;2022-09-12T08:42:30;43.05;;;31.23;;
52542;SDS011;38449;52.696;6.186;2022-09-12T08:45:19;41.22;;;31.75;;
52542;SDS011;38449;52.696;6.186;2022-09-12T08:47:51;43.00;;;31.75;;
52542;SDS011;38449;52.696;6.186;2022-09-12T08:50:18;40.88;;;31.55;;
52542;SDS011;38449;52.696;6.186;2022-09-12T08:58:00;43.42;;;32.05;;
52542;SDS011;38449;52.696;6.186;2022-09-12T09:00:55;45.88;;;31.17;;
52542;SDS011;38449;52.696;6.186;2022-09-12T09:09:03;44.85;;;31.92;;
52542;SDS011;38449;52.696;6.186;2022-09-12T09:14:59;43.17;;;30.80;;
52542;SDS011;38449;52.696;6.186;2022-09-12T09:17:42;42.55;;;31.10;;
52542;SDS011;38449;52.696;6.186;2022-09-12T09:22:51;41.10;;;31.10;;
52542;SDS011;38449;52.696;6.186;2022-09-12T09:25:23;41.38;;;30.85;;
52542;SDS011;38449;52.696;6.186;2022-09-12T09:27:58;44.42;;;31.13;;
52542;SDS011;38449;52.696;6.186;2022-09-12T09:30:28;45.35;;;31.38;;
52542;SDS011;38449;52.696;6.186;2022-09-12T09:32:55;36.60;;;28.75;;
52542;SDS011;38449;52.696;6.186;2022-09-12T09:41:17;37.80;;;28.63;;
52542;SDS011;38449;52.696;6.186;2022-09-12T09:43:58;41.97;;;29.63;;
52542;SDS011;38449;52.696;6.186;2022-09-12T09:46:25;39.85;;;28.20;;
52542;SDS011;38449;52.696;6.186;2022-09-12T09:48:51;39.90;;;30.75;;
52542;SDS011;38449;52.696;6.186;2022-09-12T09:51:20;39.45;;;29.83;;
52542;SDS011;38449;52.696;6.186;2022-09-12T09:53:58;41.60;;;29.48;;
52542;SDS011;38449;52.696;6.186;2022-09-12T09:56:33;38.78;;;29.05;;
52542;SDS011;38449;52.696;6.186;2022-09-12T10:01:45;39.03;;;29.73;;
52542;SDS011;38449;52.696;6.186;2022-09-12T10:04:21;37.47;;;26.67;;
52542;SDS011;38449;52.696;6.186;2022-09-12T10:06:53;36.45;;;26.73;;
52542;SDS011;38449;52.696;6.186;2022-09-12T10:09:24;33.92;;;26.40;;
52542;SDS011;38449;52.696;6.186;2022-09-12T10:11:52;34.10;;;26.08;;
52542;SDS011;38449;52.696;6.186;2022-09-12T10:14:27;34.10;;;25.67;;
52542;SDS011;38449;52.696;6.186;2022-09-12T10:16:56;32.40;;;24.92;;
52542;SDS011;38449;52.696;6.186;2022-09-12T10:19:32;33.00;;;25.83;;
52542;SDS011;38449;52.696;6.186;2022-09-12T10:21:59;31.88;;;24.35;;
52542;SDS011;38449;52.696;6.186;2022-09-12T10:24:31;30.85;;;23.65;;
52542;SDS011;38449;52.696;6.186;2022-09-12T10:27:13;31.55;;;23.98;;
52542;SDS011;38449;52.696;6.186;2022-09-12T10:29:45;31.63;;;23.80;;
52542;SDS011;38449;52.696;6.186;2022-09-12T10:32:27;30.65;;;22.98;;
52542;SDS011;38449;52.696;6.186;2022-09-12T10:35:06;29.10;;;21.67;;
52542;SDS011;38449;52.696;6.186;2022-09-12T10:37:42;27.58;;;21.42;;
52542;SDS011;38449;52.696;6.186;2022-09-12T10:40:31;26.17;;;20.60;;
52542;SDS011;38449;52.696;6.186;2022-09-12T10:43:01;30.85;;;21.85;;
52542;SDS011;38449;52.696;6.186;2022-09-12T10:45:41;29.85;;;21.83;;
52542;SDS011;38449;52.696;6.186;2022-09-12T10:50:51;30.67;;;22.67;;
52542;SDS011;38449;52.696;6.186;2022-09-12T10:53:21;32.47;;;22.02;;
52542;SDS011;38449;52.696;6.186;2022-09-12T10:58:29;28.00;;;20.63;;
52542;SDS011;38449;52.696;6.186;2022-09-12T11:01:12;28.85;;;20.42;;
52542;SDS011;38449;52.696;6.186;2022-09-12T11:12:20;23.10;;;17.38;;
52542;SDS011;38449;52.696;6.186;2022-09-12T11:15:02;20.15;;;16.13;;
52542;SDS011;38449;52.696;6.186;2022-09-12T11:23:02;21.45;;;16.13;;
52542;SDS011;38449;52.696;6.186;2022-09-12T11:25:51;20.42;;;15.73;;
52542;SDS011;38449;52.696;6.186;2022-09-12T11:33:59;24.42;;;18.02;;
52542;SDS011;38449;52.696;6.186;2022-09-12T11:39:20;22.33;;;16.85;;
52542;SDS011;38449;52.696;6.186;2022-09-12T11:42:10;22.80;;;16.75;;
52542;SDS011;38449;52.696;6.186;2022-09-12T11:44:44;22.10;;;16.90;;
52542;SDS011;38449;52.696;6.186;2022-09-12T11:47:11;20.25;;;16.40;;
52542;SDS011;38449;52.696;6.186;2022-09-12T11:49:56;19.40;;;15.95;;
52542;SDS011;38449;52.696;6.186;2022-09-12T11:52:28;19.50;;;15.60;;
52542;SDS011;38449;52.696;6.186;2022-09-12T11:55:18;19.67;;;14.85;;
52542;SDS011;38449;52.696;6.186;2022-09-12T11:57:53;20.20;;;14.85;;
52542;SDS011;38449;52.696;6.186;2022-09-12T12:00:56;20.98;;;14.95;;
52542;SDS011;38449;52.696;6.186;2022-09-12T12:08:37;20.00;;;14.93;;
52542;SDS011;38449;52.696;6.186;2022-09-12T12:11:04;20.75;;;13.95;;
52542;SDS011;38449;52.696;6.186;2022-09-12T12:16:07;17.98;;;13.35;;
52542;SDS011;38449;52.696;6.186;2022-09-12T12:18:38;16.95;;;13.00;;
52542;SDS011;38449;52.696;6.186;2022-09-12T12:29:11;19.63;;;13.35;;
52542;SDS011;38449;52.696;6.186;2022-09-12T12:45:02;18.30;;;13.75;;
52542;SDS011;38449;52.696;6.186;2022-09-12T12:47:54;17.73;;;13.88;;
52542;SDS011;38449;52.696;6.186;2022-09-12T12:50:23;19.13;;;13.10;;
52542;SDS011;38449;52.696;6.186;2022-09-12T12:52:55;13.82;;;10.52;;
52542;SDS011;38449;52.696;6.186;2022-09-12T12:58:07;15.35;;;9.75;;
52542;SDS011;38449;52.696;6.186;2022-09-12T13:00:45;16.50;;;13.07;;
52542;SDS011;38449;52.696;6.186;2022-09-12T13:03:26;19.20;;;13.82;;
52542;SDS011;38449;52.696;6.186;2022-09-12T13:05:56;15.50;;;12.15;;
52542;SDS011;38449;52.696;6.186;2022-09-12T13:08:29;14.90;;;11.73;;
52542;SDS011;38449;52.696;6.186;2022-09-12T13:11:00;18.40;;;13.20;;
52542;SDS011;38449;52.696;6.186;2022-09-12T13:16:08;14.05;;;10.73;;
52542;SDS011;38449;52.696;6.186;2022-09-12T13:18:45;14.68;;;10.43;;
52542;SDS011;38449;52.696;6.186;2022-09-12T13:21:19;14.07;;;10.40;;
52542;SDS011;38449;52.696;6.186;2022-09-12T13:24:01;13.00;;;10.15;;
52542;SDS011;38449;52.696;6.186;2022-09-12T13:26:40;11.70;;;9.20;;
52542;SDS011;38449;52.696;6.186;2022-09-12T13:29:28;12.50;;;9.85;;
52542;SDS011;38449;52.696;6.186;2022-09-12T13:31:58;11.73;;;9.27;;
52542;SDS011;38449;52.696;6.186;2022-09-12T13:34:32;12.70;;;8.55;;
52542;SDS011;38449;52.696;6.186;2022-09-12T13:37:20;9.35;;;7.10;;
52542;SDS011;38449;52.696;6.186;2022-09-12T13:43:13;8.88;;;5.72;;
52542;SDS011;38449;52.696;6.186;2022-09-12T13:45:41;7.25;;;5.60;;
52542;SDS011;38449;52.696;6.186;2022-09-12T13:48:12;8.10;;;5.93;;
52542;SDS011;38449;52.696;6.186;2022-09-12T13:50:56;7.47;;;5.60;;
52542;SDS011;38449;52.696;6.186;2022-09-12T13:53:25;6.13;;;4.88;;
52542;SDS011;38449;52.696;6.186;2022-09-12T13:56:14;5.93;;;4.82;;
52542;SDS011;38449;52.696;6.186;2022-09-12T13:58:57;5.93;;;4.60;;
52542;SDS011;38449;52.696;6.186;2022-09-12T14:01:35;6.78;;;4.38;;
52542;SDS011;38449;52.696;6.186;2022-09-12T14:04:09;6.95;;;5.43;;
52542;SDS011;38449;52.696;6.186;2022-09-12T14:07:06;6.85;;;4.75;;
52542;SDS011;38449;52.696;6.186;2022-09-12T14:09:40;5.80;;;3.95;;
52542;SDS011;38449;52.696;6.186;2022-09-12T14:12:24;5.65;;;3.90;;
52542;SDS011;38449;52.696;6.186;2022-09-12T14:14:50;6.03;;;4.00;;
52542;SDS011;38449;52.696;6.186;2022-09-12T14:17:24;5.60;;;3.97;;
52542;SDS011;38449;52.696;6.186;2022-09-12T14:19:55;5.50;;;3.95;;
52542;SDS011;38449;52.696;6.186;2022-09-12T14:22:27;5.30;;;3.42;;
52542;SDS011;38449;52.696;6.186;2022-09-12T14:24:54;6.43;;;4.00;;
52542;SDS011;38449;52.696;6.186;2022-09-12T14:27:34;5.53;;;3.95;;
52542;SDS011;38449;52.696;6.186;2022-09-12T14:30:06;6.75;;;3.72;;
52542;SDS011;38449;52.696;6.186;2022-09-12T14:32:43;5.13;;;3.95;;
52542;SDS011;38449;52.696;6.186;2022-09-12T14:35:25;4.70;;;3.88;;
52542;SDS011;38449;52.696;6.186;2022-09-12T14:37:51;5.28;;;3.58;;
52542;SDS011;38449;52.696;6.186;2022-09-12T14:40:19;6.15;;;3.97;;
52542;SDS011;38449;52.696;6.186;2022-09-12T14:42:49;5.05;;;3.55;;
52542;SDS011;38449;52.696;6.186;2022-09-12T14:45:26;5.85;;;4.13;;
52542;SDS011;38449;52.696;6.186;2022-09-12T14:47:54;5.45;;;4.10;;
52542;SDS011;38449;52.696;6.186;2022-09-12T14:50:26;6.45;;;3.75;;
52542;SDS011;38449;52.696;6.186;2022-09-12T14:53:06;5.15;;;3.50;;
52542;SDS011;38449;52.696;6.186;2022-09-12T14:55:45;5.38;;;3.33;;
52542;SDS011;38449;52.696;6.186;2022-09-12T15:08:56;4.93;;;4.15;;
52542;SDS011;38449;52.696;6.186;2022-09-12T15:11:23;5.25;;;4.00;;
52542;SDS011;38449;52.696;6.186;2022-09-12T15:13:49;5.90;;;4.07;;
52542;SDS011;38449;52.696;6.186;2022-09-12T15:16:15;5.97;;;4.03;;
52542;SDS011;38449;52.696;6.186;2022-09-12T15:18:41;6.10;;;4.15;;
52542;SDS011;38449;52.696;6.186;2022-09-12T15:21:09;6.95;;;4.35;;
52542;SDS011;38449;52.696;6.186;2022-09-12T15:23:50;7.20;;;4.45;;
52542;SDS011;38449;52.696;6.186;2022-09-12T15:26:21;6.00;;;4.15;;
52542;SDS011;38449;52.696;6.186;2022-09-12T15:28:50;5.13;;;3.78;;
52542;SDS011;38449;52.696;6.186;2022-09-12T15:36:16;4.97;;;3.60;;
52542;SDS011;38449;52.696;6.186;2022-09-12T15:38:43;6.70;;;4.00;;
52542;SDS011;38449;52.696;6.186;2022-09-12T15:41:11;7.50;;;4.20;;
52542;SDS011;38449;52.696;6.186;2022-09-12T15:43:42;4.63;;;3.42;;
52542;SDS011;38449;52.696;6.186;2022-09-12T15:46:11;5.57;;;3.40;;
52542;SDS011;38449;52.696;6.186;2022-09-12T15:48:38;4.70;;;3.42;;
52542;SDS011;38449;52.696;6.186;2022-09-12T15:51:05;5.80;;;3.38;;
52542;SDS011;38449;52.696;6.186;2022-09-12T15:53:35;5.72;;;3.88;;
52542;SDS011;38449;52.696;6.186;2022-09-12T15:56:01;5.47;;;3.40;;
52542;SDS011;38449;52.696;6.186;2022-09-12T15:58:26;6.78;;;4.07;;
52542;SDS011;38449;52.696;6.186;2022-09-12T16:00:52;10.40;;;4.30;;
52542;SDS011;38449;52.696;6.186;2022-09-12T16:03:22;9.40;;;4.57;;
52542;SDS011;38449;52.696;6.186;2022-09-12T16:05:54;8.40;;;5.75;;
52542;SDS011;38449;52.696;6.186;2022-09-12T16:08:24;7.78;;;5.03;;
52542;SDS011;38449;52.696;6.186;2022-09-12T16:10:54;10.23;;;6.63;;
52542;SDS011;38449;52.696;6.186;2022-09-12T16:13:24;8.38;;;5.57;;
52542;SDS011;38449;52.696;6.186;2022-09-12T16:15:50;6.97;;;4.13;;
52542;SDS011;38449;52.696;6.186;2022-09-12T16:18:20;5.53;;;3.65;;
52542;SDS011;38449;52.696;6.186;2022-09-12T16:20:45;5.05;;;3.60;;
52542;SDS011;38449;52.696;6.186;2022-09-12T16:23:11;5.57;;;3.83;;
52542;SDS011;38449;52.696;6.186;2022-09-12T16:25:38;6.13;;;3.97;;
52542;SDS011;38449;52.696;6.186;2022-09-12T16:28:04;4.53;;;3.67;;
52542;SDS011;38449;52.696;6.186;2022-09-12T16:30:31;4.93;;;3.70;;
52542;SDS011;38449;52.696;6.186;2022-09-12T16:32:57;5.53;;;4.00;;
52542;SDS011;38449;52.696;6.186;2022-09-12T16:35:23;4.90;;;3.75;;
52542;SDS011;38449;52.696;6.186;2022-09-12T16:37:49;5.03;;;3.78;;
52542;SDS011;38449;52.696;6.186;2022-09-12T16:40:14;6.63;;;3.78;;
52542;SDS011;38449;52.696;6.186;2022-09-12T16:42:43;5.55;;;3.70;;
52542;SDS011;38449;52.696;6.186;2022-09-12T16:45:09;6.18;;;4.00;;
52542;SDS011;38449;52.696;6.186;2022-09-12T16:47:36;6.47;;;4.15;;
52542;SDS011;38449;52.696;6.186;2022-09-12T16:50:01;5.35;;;3.70;;
52542;SDS011;38449;52.696;6.186;2022-09-12T16:52:27;5.60;;;3.92;;
52542;SDS011;38449;52.696;6.186;2022-09-12T16:54:53;6.30;;;3.90;;
52542;SDS011;38449;52.696;6.186;2022-09-12T16:57:18;5.57;;;3.75;;
52542;SDS011;38449;52.696;6.186;2022-09-12T16:59:44;7.32;;;3.95;;
52542;SDS011;38449;52.696;6.186;2022-09-12T17:02:11;6.18;;;3.88;;
52542;SDS011;38449;52.696;6.186;2022-09-12T17:04:37;5.85;;;4.13;;
52542;SDS011;38449;52.696;6.186;2022-09-12T17:07:03;5.95;;;4.25;;
52542;SDS011;38449;52.696;6.186;2022-09-12T17:09:29;6.60;;;4.43;;
52542;SDS011;38449;52.696;6.186;2022-09-12T17:11:55;6.05;;;4.40;;
52542;SDS011;38449;52.696;6.186;2022-09-12T17:14:21;6.95;;;4.63;;
52542;SDS011;38449;52.696;6.186;2022-09-12T17:16:47;6.38;;;4.05;;
52542;SDS011;38449;52.696;6.186;2022-09-12T17:19:15;6.53;;;3.97;;